sensor_id;sensor_type;location;lat;lon;timestamp;P1;durP1;ratioP1;P2;durP2;ratioP2
2724;SDS011;1370;52.596;13.112;2024-03-25T00:00:13;3.73;;;3.50;;
2724;SDS011;1370;52.596;13.112;2024-03-25T00:02:41;3.93;;;3.63;;
2724;SDS011;1370;52.596;13.112;2024-03-25T00:05:07;4.90;;;4.50;;
2724;SDS011;1370;52.596;13.112;2024-03-25T00:07:48;3.97;;;3.67;;
2724;SDS011;1370;52.596;13.112;2024-03-25T00:10:17;6.57;;;3.73;;
2724;SDS011;1370;52.596;13.112;2024-03-25T00:12:48;3.93;;;3.47;;
2724;SDS011;1370;52.596;13.112;2024-03-25T00:15:20;6.13;;;3.10;;
2724;SDS011;1370;52.596;13.112;2024-03-25T00:17:50;3.60;;;3.40;;
2724;SDS011;1370;52.596;13.112;2024-03-25T00:20:19;3.37;;;3.17;;
2724;SDS011;1370;52.596;13.112;2024-03-25T00:22:49;4.50;;;4.20;;
2724;SDS011;1370;52.596;13.112;2024-03-25T00:25:17;3.67;;;3.37;;
2724;SDS011;1370;52.596;13.112;2024-03-25T00:27:42;3.00;;;2.80;;
2724;SDS011;1370;52.596;13.112;2024-03-25T00:30:11;3.70;;;3.40;;
2724;SDS011;1370;52.596;13.112;2024-03-25T00:32:37;4.50;;;4.10;;
2724;SDS011;1370;52.596;13.112;2024-03-25T00:35:05;3.97;;;3.67;;
2724;SDS011;1370;52.596;13.112;2024-03-25T00:37:33;3.43;;;3.13;;
2724;SDS011;1370;52.596;13.112;2024-03-25T00:40:01;3.90;;;3.60;;
2724;SDS011;1370;52.596;13.112;2024-03-25T00:42:27;4.73;;;3.70;;
2724;SDS011;1370;52.596;13.112;2024-03-25T00:45:04;4.60;;;4.20;;
2724;SDS011;1370;52.596;13.112;2024-03-25T00:47:32;6.30;;;3.63;;
2724;SDS011;1370;52.596;13.112;2024-03-25T00:50:07;4.40;;;4.00;;
2724;SDS011;1370;52.596;13.112;2024-03-25T00:52:37;3.93;;;3.70;;
2724;SDS011;1370;52.596;13.112;2024-03-25T00:55:05;5.07;;;4.00;;
2724;SDS011;1370;52.596;13.112;2024-03-25T00:57:38;3.97;;;3.67;;
2724;SDS011;1370;52.596;13.112;2024-03-25T01:00:07;5.70;;;4.13;;
2724;SDS011;1370;52.596;13.112;2024-03-25T01:02:33;4.47;;;4.07;;
2724;SDS011;1370;52.596;13.112;2024-03-25T01:05:01;5.13;;;3.90;;
2724;SDS011;1370;52.596;13.112;2024-03-25T01:07:28;7.00;;;4.60;;
2724;SDS011;1370;52.596;13.112;2024-03-25T01:09:56;4.83;;;4.33;;
2724;SDS011;1370;52.596;13.112;2024-03-25T01:12:26;6.00;;;4.67;;
2724;SDS011;1370;52.596;13.112;2024-03-25T01:14:52;4.60;;;4.20;;
2724;SDS011;1370;52.596;13.112;2024-03-25T01:17:21;5.07;;;4.67;;
2724;SDS011;1370;52.596;13.112;2024-03-25T01:19:50;5.57;;;4.80;;
2724;SDS011;1370;52.596;13.112;2024-03-25T01:22:18;6.20;;;4.43;;
2724;SDS011;1370;52.596;13.112;2024-03-25T01:24:49;5.30;;;4.80;;
2724;SDS011;1370;52.596;13.112;2024-03-25T01:27:21;3.73;;;3.43;;
2724;SDS011;1370;52.596;13.112;2024-03-25T01:29:46;4.80;;;4.10;;
2724;SDS011;1370;52.596;13.112;2024-03-25T01:32:17;3.13;;;2.70;;
2724;SDS011;1370;52.596;13.112;2024-03-25T01:34:54;2.40;;;2.20;;
2724;SDS011;1370;52.596;13.112;2024-03-25T01:37:21;3.20;;;2.47;;
2724;SDS011;1370;52.596;13.112;2024-03-25T01:39:49;5.07;;;2.70;;
2724;SDS011;1370;52.596;13.112;2024-03-25T01:42:14;3.33;;;2.40;;
2724;SDS011;1370;52.596;13.112;2024-03-25T01:44:45;3.13;;;2.40;;
2724;SDS011;1370;52.596;13.112;2024-03-25T01:47:18;2.93;;;2.33;;
2724;SDS011;1370;52.596;13.112;2024-03-25T01:49:52;2.77;;;2.57;;
2724;SDS011;1370;52.596;13.112;2024-03-25T01:52:20;3.80;;;3.40;;
2724;SDS011;1370;52.596;13.112;2024-03-25T01:54:47;4.00;;;3.80;;
2724;SDS011;1370;52.596;13.112;2024-03-25T01:57:14;3.87;;;3.57;;
2724;SDS011;1370;52.596;13.112;2024-03-25T01:59:39;4.10;;;2.97;;
2724;SDS011;1370;52.596;13.112;2024-03-25T02:02:11;4.07;;;3.77;;
2724;SDS011;1370;52.596;13.112;2024-03-25T02:04:39;3.77;;;3.47;;
2724;SDS011;1370;52.596;13.112;2024-03-25T02:07:08;3.53;;;3.23;;
2724;SDS011;1370;52.596;13.112;2024-03-25T02:09:38;6.47;;;2.90;;
2724;SDS011;1370;52.596;13.112;2024-03-25T02:12:07;7.40;;;3.73;;
2724;SDS011;1370;52.596;13.112;2024-03-25T02:14:36;3.40;;;3.03;;
2724;SDS011;1370;52.596;13.112;2024-03-25T02:17:09;6.23;;;3.47;;
2724;SDS011;1370;52.596;13.112;2024-03-25T02:19:35;9.40;;;4.93;;
2724;SDS011;1370;52.596;13.112;2024-03-25T02:22:02;4.27;;;3.87;;
2724;SDS011;1370;52.596;13.112;2024-03-25T02:24:28;4.37;;;3.63;;
2724;SDS011;1370;52.596;13.112;2024-03-25T02:26:54;4.50;;;4.10;;
2724;SDS011;1370;52.596;13.112;2024-03-25T02:29:19;6.43;;;4.63;;
2724;SDS011;1370;52.596;13.112;2024-03-25T02:31:44;6.57;;;4.60;;
2724;SDS011;1370;52.596;13.112;2024-03-25T02:34:11;4.67;;;3.80;;
2724;SDS011;1370;52.596;13.112;2024-03-25T02:36:39;4.83;;;4.27;;
2724;SDS011;1370;52.596;13.112;2024-03-25T02:39:10;4.67;;;3.83;;
2724;SDS011;1370;52.596;13.112;2024-03-25T02:41:41;5.50;;;4.07;;
2724;SDS011;1370;52.596;13.112;2024-03-25T02:44:12;6.20;;;4.40;;
2724;SDS011;1370;52.596;13.112;2024-03-25T02:46:41;4.60;;;4.20;;
2724;SDS011;1370;52.596;13.112;2024-03-25T02:49:12;5.43;;;4.20;;
2724;SDS011;1370;52.596;13.112;2024-03-25T02:51:38;10.43;;;4.83;;
2724;SDS011;1370;52.596;13.112;2024-03-25T02:54:06;5.80;;;3.50;;
2724;SDS011;1370;52.596;13.112;2024-03-25T02:56:34;3.43;;;3.17;;
2724;SDS011;1370;52.596;13.112;2024-03-25T02:59:00;4.50;;;4.10;;
2724;SDS011;1370;52.596;13.112;2024-03-25T03:01:31;11.60;;;3.30;;
2724;SDS011;1370;52.596;13.112;2024-03-25T03:03:57;4.20;;;3.40;;
2724;SDS011;1370;52.596;13.112;2024-03-25T03:06:22;5.70;;;2.70;;
2724;SDS011;1370;52.596;13.112;2024-03-25T03:08:47;4.47;;;3.20;;
2724;SDS011;1370;52.596;13.112;2024-03-25T03:11:13;3.97;;;3.00;;
2724;SDS011;1370;52.596;13.112;2024-03-25T03:13:38;3.63;;;3.00;;
2724;SDS011;1370;52.596;13.112;2024-03-25T03:16:11;6.10;;;2.97;;
2724;SDS011;1370;52.596;13.112;2024-03-25T03:18:42;3.03;;;2.77;;
2724;SDS011;1370;52.596;13.112;2024-03-25T03:21:15;3.80;;;3.50;;
2724;SDS011;1370;52.596;13.112;2024-03-25T03:23:40;4.00;;;3.23;;
2724;SDS011;1370;52.596;13.112;2024-03-25T03:26:06;4.17;;;3.77;;
2724;SDS011;1370;52.596;13.112;2024-03-25T03:28:33;3.40;;;3.10;;
2724;SDS011;1370;52.596;13.112;2024-03-25T03:31:01;3.73;;;3.33;;
2724;SDS011;1370;52.596;13.112;2024-03-25T03:33:32;3.00;;;2.80;;
2724;SDS011;1370;52.596;13.112;2024-03-25T03:35:57;6.80;;;3.37;;
2724;SDS011;1370;52.596;13.112;2024-03-25T03:38:26;4.60;;;3.03;;
2724;SDS011;1370;52.596;13.112;2024-03-25T03:40:58;4.63;;;3.70;;
2724;SDS011;1370;52.596;13.112;2024-03-25T03:43:24;3.43;;;3.13;;
2724;SDS011;1370;52.596;13.112;2024-03-25T03:45:51;7.53;;;3.97;;
2724;SDS011;1370;52.596;13.112;2024-03-25T03:48:22;3.90;;;2.60;;
2724;SDS011;1370;52.596;13.112;2024-03-25T03:50:50;4.73;;;3.77;;
2724;SDS011;1370;52.596;13.112;2024-03-25T03:53:18;7.00;;;3.07;;
2724;SDS011;1370;52.596;13.112;2024-03-25T03:55:55;5.03;;;2.97;;
2724;SDS011;1370;52.596;13.112;2024-03-25T03:58:25;3.47;;;3.20;;
2724;SDS011;1370;52.596;13.112;2024-03-25T04:00:53;2.70;;;2.50;;
2724;SDS011;1370;52.596;13.112;2024-03-25T04:03:19;4.00;;;3.70;;
2724;SDS011;1370;52.596;13.112;2024-03-25T04:05:46;5.47;;;3.33;;
2724;SDS011;1370;52.596;13.112;2024-03-25T04:08:12;4.63;;;4.07;;
2724;SDS011;1370;52.596;13.112;2024-03-25T04:10:39;3.10;;;2.73;;
2724;SDS011;1370;52.596;13.112;2024-03-25T04:13:11;3.40;;;3.10;;
2724;SDS011;1370;52.596;13.112;2024-03-25T04:15:40;5.67;;;4.07;;
2724;SDS011;1370;52.596;13.112;2024-03-25T04:18:07;6.53;;;4.43;;
2724;SDS011;1370;52.596;13.112;2024-03-25T04:20:36;4.03;;;3.07;;
2724;SDS011;1370;52.596;13.112;2024-03-25T04:23:02;3.47;;;2.50;;
2724;SDS011;1370;52.596;13.112;2024-03-25T04:25:30;7.63;;;3.63;;
2724;SDS011;1370;52.596;13.112;2024-03-25T04:27:55;3.40;;;3.10;;
2724;SDS011;1370;52.596;13.112;2024-03-25T04:30:24;3.90;;;3.60;;
2724;SDS011;1370;52.596;13.112;2024-03-25T04:32:51;8.70;;;4.53;;
2724;SDS011;1370;52.596;13.112;2024-03-25T04:35:17;4.17;;;3.47;;
2724;SDS011;1370;52.596;13.112;2024-03-25T04:37:53;4.30;;;3.90;;
2724;SDS011;1370;52.596;13.112;2024-03-25T04:40:23;6.70;;;4.70;;
2724;SDS011;1370;52.596;13.112;2024-03-25T04:42:54;3.73;;;3.33;;
2724;SDS011;1370;52.596;13.112;2024-03-25T04:45:23;6.83;;;4.17;;
2724;SDS011;1370;52.596;13.112;2024-03-25T04:47:50;6.43;;;3.33;;
2724;SDS011;1370;52.596;13.112;2024-03-25T04:50:16;4.57;;;4.10;;
2724;SDS011;1370;52.596;13.112;2024-03-25T04:52:44;6.17;;;4.20;;
2724;SDS011;1370;52.596;13.112;2024-03-25T04:55:12;5.30;;;4.00;;
2724;SDS011;1370;52.596;13.112;2024-03-25T04:57:37;9.80;;;4.40;;
2724;SDS011;1370;52.596;13.112;2024-03-25T05:00:11;7.73;;;5.30;;
2724;SDS011;1370;52.596;13.112;2024-03-25T05:02:39;9.70;;;4.00;;
2724;SDS011;1370;52.596;13.112;2024-03-25T05:05:09;5.00;;;4.07;;
2724;SDS011;1370;52.596;13.112;2024-03-25T05:07:37;13.03;;;4.40;;
2724;SDS011;1370;52.596;13.112;2024-03-25T05:10:05;4.63;;;3.83;;
2724;SDS011;1370;52.596;13.112;2024-03-25T05:12:37;5.20;;;3.53;;
2724;SDS011;1370;52.596;13.112;2024-03-25T05:15:03;4.33;;;3.87;;
2724;SDS011;1370;52.596;13.112;2024-03-25T05:17:29;6.00;;;4.20;;
2724;SDS011;1370;52.596;13.112;2024-03-25T05:19:55;7.10;;;4.60;;
2724;SDS011;1370;52.596;13.112;2024-03-25T05:22:26;7.07;;;4.40;;
2724;SDS011;1370;52.596;13.112;2024-03-25T05:24:53;4.60;;;4.20;;
2724;SDS011;1370;52.596;13.112;2024-03-25T05:27:22;8.57;;;4.43;;
2724;SDS011;1370;52.596;13.112;2024-03-25T05:29:49;8.07;;;4.00;;
2724;SDS011;1370;52.596;13.112;2024-03-25T05:32:19;6.20;;;4.30;;
2724;SDS011;1370;52.596;13.112;2024-03-25T05:34:54;5.33;;;4.27;;
2724;SDS011;1370;52.596;13.112;2024-03-25T05:37:22;12.43;;;4.80;;
2724;SDS011;1370;52.596;13.112;2024-03-25T05:39:50;6.17;;;4.90;;
2724;SDS011;1370;52.596;13.112;2024-03-25T05:42:15;5.93;;;4.23;;
2724;SDS011;1370;52.596;13.112;2024-03-25T05:44:40;8.60;;;5.63;;
2724;SDS011;1370;52.596;13.112;2024-03-25T05:47:06;6.00;;;4.23;;
2724;SDS011;1370;52.596;13.112;2024-03-25T05:49:31;5.07;;;4.17;;
2724;SDS011;1370;52.596;13.112;2024-03-25T05:51:59;6.40;;;4.73;;
2724;SDS011;1370;52.596;13.112;2024-03-25T05:54:33;10.27;;;4.97;;
2724;SDS011;1370;52.596;13.112;2024-03-25T05:56:58;6.27;;;4.70;;
2724;SDS011;1370;52.596;13.112;2024-03-25T05:59:26;9.33;;;4.73;;
2724;SDS011;1370;52.596;13.112;2024-03-25T06:01:51;5.57;;;4.37;;
2724;SDS011;1370;52.596;13.112;2024-03-25T06:04:17;6.50;;;4.73;;
2724;SDS011;1370;52.596;13.112;2024-03-25T06:06:48;7.83;;;6.00;;
2724;SDS011;1370;52.596;13.112;2024-03-25T06:09:16;11.50;;;4.43;;
2724;SDS011;1370;52.596;13.112;2024-03-25T06:11:41;7.10;;;4.90;;
2724;SDS011;1370;52.596;13.112;2024-03-25T06:14:07;6.20;;;4.30;;
2724;SDS011;1370;52.596;13.112;2024-03-25T06:16:32;4.50;;;3.80;;
2724;SDS011;1370;52.596;13.112;2024-03-25T06:18:57;5.77;;;4.03;;
2724;SDS011;1370;52.596;13.112;2024-03-25T06:21:25;4.87;;;3.93;;
2724;SDS011;1370;52.596;13.112;2024-03-25T06:23:50;6.40;;;4.10;;
2724;SDS011;1370;52.596;13.112;2024-03-25T06:26:23;6.40;;;4.43;;
2724;SDS011;1370;52.596;13.112;2024-03-25T06:28:48;3.53;;;3.23;;
2724;SDS011;1370;52.596;13.112;2024-03-25T06:31:14;6.10;;;3.60;;
2724;SDS011;1370;52.596;13.112;2024-03-25T06:33:58;6.17;;;4.13;;
2724;SDS011;1370;52.596;13.112;2024-03-25T06:36:42;4.90;;;3.93;;
2724;SDS011;1370;52.596;13.112;2024-03-25T06:39:09;12.77;;;3.90;;
2724;SDS011;1370;52.596;13.112;2024-03-25T06:41:38;4.73;;;3.60;;
2724;SDS011;1370;52.596;13.112;2024-03-25T06:44:06;6.60;;;4.33;;
2724;SDS011;1370;52.596;13.112;2024-03-25T06:46:34;7.97;;;4.13;;
2724;SDS011;1370;52.596;13.112;2024-03-25T06:49:07;7.33;;;3.90;;
2724;SDS011;1370;52.596;13.112;2024-03-25T06:51:34;8.37;;;3.73;;
2724;SDS011;1370;52.596;13.112;2024-03-25T06:54:02;4.60;;;3.97;;
2724;SDS011;1370;52.596;13.112;2024-03-25T06:56:33;8.83;;;4.00;;
2724;SDS011;1370;52.596;13.112;2024-03-25T06:59:01;8.70;;;4.97;;
2724;SDS011;1370;52.596;13.112;2024-03-25T07:01:30;9.77;;;4.10;;
2724;SDS011;1370;52.596;13.112;2024-03-25T07:04:04;5.20;;;4.67;;
2724;SDS011;1370;52.596;13.112;2024-03-25T07:06:29;6.67;;;3.97;;
2724;SDS011;1370;52.596;13.112;2024-03-25T07:08:55;10.43;;;3.70;;
2724;SDS011;1370;52.596;13.112;2024-03-25T07:11:20;5.33;;;4.13;;
2724;SDS011;1370;52.596;13.112;2024-03-25T07:13:46;4.60;;;4.17;;
2724;SDS011;1370;52.596;13.112;2024-03-25T07:16:12;3.87;;;3.57;;
2724;SDS011;1370;52.596;13.112;2024-03-25T07:18:37;5.63;;;4.40;;
2724;SDS011;1370;52.596;13.112;2024-03-25T07:21:02;5.30;;;3.93;;
2724;SDS011;1370;52.596;13.112;2024-03-25T07:23:28;10.13;;;4.20;;
2724;SDS011;1370;52.596;13.112;2024-03-25T07:25:53;7.03;;;4.80;;
2724;SDS011;1370;52.596;13.112;2024-03-25T07:28:18;5.10;;;4.50;;
2724;SDS011;1370;52.596;13.112;2024-03-25T07:30:44;11.83;;;4.90;;
2724;SDS011;1370;52.596;13.112;2024-03-25T07:33:09;7.03;;;3.97;;
2724;SDS011;1370;52.596;13.112;2024-03-25T07:35:34;3.80;;;3.47;;
2724;SDS011;1370;52.596;13.112;2024-03-25T07:38:01;7.63;;;3.37;;
2724;SDS011;1370;52.596;13.112;2024-03-25T07:40:28;4.37;;;3.83;;
2724;SDS011;1370;52.596;13.112;2024-03-25T07:42:53;4.13;;;3.73;;
2724;SDS011;1370;52.596;13.112;2024-03-25T07:45:18;6.67;;;3.80;;
2724;SDS011;1370;52.596;13.112;2024-03-25T07:47:44;8.83;;;4.00;;
2724;SDS011;1370;52.596;13.112;2024-03-25T07:50:09;5.47;;;4.30;;
2724;SDS011;1370;52.596;13.112;2024-03-25T07:52:34;7.33;;;4.50;;
2724;SDS011;1370;52.596;13.112;2024-03-25T07:55:05;7.90;;;4.67;;
2724;SDS011;1370;52.596;13.112;2024-03-25T07:57:31;12.00;;;4.30;;
2724;SDS011;1370;52.596;13.112;2024-03-25T07:59:57;5.30;;;4.80;;
2724;SDS011;1370;52.596;13.112;2024-03-25T08:02:22;4.40;;;4.00;;
2724;SDS011;1370;52.596;13.112;2024-03-25T08:04:47;5.47;;;3.43;;
2724;SDS011;1370;52.596;13.112;2024-03-25T08:07:13;6.73;;;4.10;;
2724;SDS011;1370;52.596;13.112;2024-03-25T08:09:38;4.70;;;3.67;;
2724;SDS011;1370;52.596;13.112;2024-03-25T08:12:03;11.30;;;4.93;;
2724;SDS011;1370;52.596;13.112;2024-03-25T08:14:29;6.90;;;4.30;;
2724;SDS011;1370;52.596;13.112;2024-03-25T08:16:54;5.10;;;3.97;;
2724;SDS011;1370;52.596;13.112;2024-03-25T08:19:20;6.40;;;4.23;;
2724;SDS011;1370;52.596;13.112;2024-03-25T08:21:45;4.60;;;3.93;;
2724;SDS011;1370;52.596;13.112;2024-03-25T08:24:10;4.97;;;4.47;;
2724;SDS011;1370;52.596;13.112;2024-03-25T08:26:35;5.97;;;4.20;;
2724;SDS011;1370;52.596;13.112;2024-03-25T08:29:01;5.63;;;3.67;;
2724;SDS011;1370;52.596;13.112;2024-03-25T08:31:26;12.43;;;4.30;;
2724;SDS011;1370;52.596;13.112;2024-03-25T08:33:51;9.37;;;3.73;;
2724;SDS011;1370;52.596;13.112;2024-03-25T08:36:17;5.30;;;4.80;;
2724;SDS011;1370;52.596;13.112;2024-03-25T08:38:45;7.70;;;3.50;;
2724;SDS011;1370;52.596;13.112;2024-03-25T08:41:11;6.07;;;4.50;;
2724;SDS011;1370;52.596;13.112;2024-03-25T08:43:36;5.97;;;3.50;;
2724;SDS011;1370;52.596;13.112;2024-03-25T08:46:01;7.50;;;5.00;;
2724;SDS011;1370;52.596;13.112;2024-03-25T08:48:28;4.73;;;4.33;;
2724;SDS011;1370;52.596;13.112;2024-03-25T08:50:53;6.43;;;4.40;;
2724;SDS011;1370;52.596;13.112;2024-03-25T08:53:19;7.00;;;4.70;;
2724;SDS011;1370;52.596;13.112;2024-03-25T08:55:47;6.03;;;4.00;;
2724;SDS011;1370;52.596;13.112;2024-03-25T08:58:13;5.17;;;4.70;;
2724;SDS011;1370;52.596;13.112;2024-03-25T09:00:39;4.70;;;4.30;;
2724;SDS011;1370;52.596;13.112;2024-03-25T09:03:04;8.43;;;4.30;;
2724;SDS011;1370;52.596;13.112;2024-03-25T09:05:30;5.63;;;3.70;;
2724;SDS011;1370;52.596;13.112;2024-03-25T09:07:55;3.70;;;3.40;;
2724;SDS011;1370;52.596;13.112;2024-03-25T09:10:21;6.33;;;3.67;;
2724;SDS011;1370;52.596;13.112;2024-03-25T09:13:05;6.60;;;3.50;;
2724;SDS011;1370;52.596;13.112;2024-03-25T09:15:30;5.87;;;3.60;;
2724;SDS011;1370;52.596;13.112;2024-03-25T09:17:55;4.47;;;3.50;;
2724;SDS011;1370;52.596;13.112;2024-03-25T09:20:21;10.70;;;4.40;;
2724;SDS011;1370;52.596;13.112;2024-03-25T09:22:46;4.53;;;4.00;;
2724;SDS011;1370;52.596;13.112;2024-03-25T09:25:13;5.60;;;4.00;;
2724;SDS011;1370;52.596;13.112;2024-03-25T09:27:45;5.87;;;3.90;;
2724;SDS011;1370;52.596;13.112;2024-03-25T09:30:11;4.77;;;4.07;;
2724;SDS011;1370;52.596;13.112;2024-03-25T09:32:36;3.53;;;3.23;;
2724;SDS011;1370;52.596;13.112;2024-03-25T09:35:02;4.07;;;3.67;;
2724;SDS011;1370;52.596;13.112;2024-03-25T09:37:28;5.27;;;4.20;;
2724;SDS011;1370;52.596;13.112;2024-03-25T09:39:54;3.87;;;3.17;;
2724;SDS011;1370;52.596;13.112;2024-03-25T09:42:23;3.53;;;3.23;;
2724;SDS011;1370;52.596;13.112;2024-03-25T09:44:51;5.67;;;3.20;;
2724;SDS011;1370;52.596;13.112;2024-03-25T09:47:16;13.20;;;4.13;;
2724;SDS011;1370;52.596;13.112;2024-03-25T09:49:41;7.80;;;5.10;;
2724;SDS011;1370;52.596;13.112;2024-03-25T09:52:07;9.10;;;2.87;;
2724;SDS011;1370;52.596;13.112;2024-03-25T09:54:33;5.83;;;3.20;;
2724;SDS011;1370;52.596;13.112;2024-03-25T09:56:59;3.07;;;2.63;;
2724;SDS011;1370;52.596;13.112;2024-03-25T09:59:26;10.53;;;3.47;;
2724;SDS011;1370;52.596;13.112;2024-03-25T10:01:52;3.03;;;2.83;;
2724;SDS011;1370;52.596;13.112;2024-03-25T10:04:18;5.63;;;2.47;;
2724;SDS011;1370;52.596;13.112;2024-03-25T10:06:43;4.03;;;3.37;;
2724;SDS011;1370;52.596;13.112;2024-03-25T10:09:09;2.83;;;2.40;;
2724;SDS011;1370;52.596;13.112;2024-03-25T10:11:34;3.37;;;3.00;;
2724;SDS011;1370;52.596;13.112;2024-03-25T10:14:00;2.90;;;2.67;;
2724;SDS011;1370;52.596;13.112;2024-03-25T10:16:26;2.67;;;2.47;;
2724;SDS011;1370;52.596;13.112;2024-03-25T10:18:52;8.80;;;2.80;;
2724;SDS011;1370;52.596;13.112;2024-03-25T10:21:19;2.60;;;2.20;;
2724;SDS011;1370;52.596;13.112;2024-03-25T10:23:45;3.67;;;2.97;;
2724;SDS011;1370;52.596;13.112;2024-03-25T10:26:10;5.60;;;3.00;;
2724;SDS011;1370;52.596;13.112;2024-03-25T10:28:57;3.57;;;2.80;;
2724;SDS011;1370;52.596;13.112;2024-03-25T10:31:26;4.87;;;2.70;;
2724;SDS011;1370;52.596;13.112;2024-03-25T10:33:52;2.43;;;2.20;;
2724;SDS011;1370;52.596;13.112;2024-03-25T10:36:18;4.30;;;3.20;;
2724;SDS011;1370;52.596;13.112;2024-03-25T10:38:44;5.10;;;3.03;;
2724;SDS011;1370;52.596;13.112;2024-03-25T10:41:10;4.73;;;2.53;;
2724;SDS011;1370;52.596;13.112;2024-03-25T10:43:38;2.80;;;2.60;;
2724;SDS011;1370;52.596;13.112;2024-03-25T10:46:03;8.37;;;2.80;;
2724;SDS011;1370;52.596;13.112;2024-03-25T10:48:34;3.83;;;2.23;;
2724;SDS011;1370;52.596;13.112;2024-03-25T10:51:01;6.43;;;3.50;;
2724;SDS011;1370;52.596;13.112;2024-03-25T10:53:27;5.50;;;3.20;;
2724;SDS011;1370;52.596;13.112;2024-03-25T10:55:54;5.00;;;2.87;;
2724;SDS011;1370;52.596;13.112;2024-03-25T10:58:20;3.17;;;2.07;;
2724;SDS011;1370;52.596;13.112;2024-03-25T11:00:46;3.10;;;2.80;;
2724;SDS011;1370;52.596;13.112;2024-03-25T11:03:13;5.30;;;3.03;;
2724;SDS011;1370;52.596;13.112;2024-03-25T11:05:38;7.50;;;4.10;;
2724;SDS011;1370;52.596;13.112;2024-03-25T11:08:11;4.70;;;3.37;;
2724;SDS011;1370;52.596;13.112;2024-03-25T11:10:43;3.83;;;2.60;;
2724;SDS011;1370;52.596;13.112;2024-03-25T11:13:12;6.43;;;3.90;;
2724;SDS011;1370;52.596;13.112;2024-03-25T11:15:42;10.93;;;6.63;;
2724;SDS011;1370;52.596;13.112;2024-03-25T11:18:12;4.50;;;3.00;;
2724;SDS011;1370;52.596;13.112;2024-03-25T11:20:37;8.43;;;3.07;;
2724;SDS011;1370;52.596;13.112;2024-03-25T11:23:07;2.77;;;2.47;;
2724;SDS011;1370;52.596;13.112;2024-03-25T11:25:34;7.17;;;3.57;;
2724;SDS011;1370;52.596;13.112;2024-03-25T11:27:59;4.47;;;2.73;;
2724;SDS011;1370;52.596;13.112;2024-03-25T11:30:24;3.43;;;3.13;;
2724;SDS011;1370;52.596;13.112;2024-03-25T11:32:51;6.47;;;3.67;;
2724;SDS011;1370;52.596;13.112;2024-03-25T11:35:18;3.70;;;2.80;;
2724;SDS011;1370;52.596;13.112;2024-03-25T11:37:43;3.90;;;2.90;;
2724;SDS011;1370;52.596;13.112;2024-03-25T11:40:09;2.10;;;1.87;;
2724;SDS011;1370;52.596;13.112;2024-03-25T11:42:39;3.20;;;2.37;;
2724;SDS011;1370;52.596;13.112;2024-03-25T11:45:14;6.87;;;3.30;;
2724;SDS011;1370;52.596;13.112;2024-03-25T11:47:44;9.80;;;2.30;;
2724;SDS011;1370;52.596;13.112;2024-03-25T11:50:11;4.33;;;2.63;;
2724;SDS011;1370;52.596;13.112;2024-03-25T11:52:37;4.70;;;2.30;;
2724;SDS011;1370;52.596;13.112;2024-03-25T11:55:03;2.63;;;2.30;;
2724;SDS011;1370;52.596;13.112;2024-03-25T11:57:28;4.00;;;3.63;;
2724;SDS011;1370;52.596;13.112;2024-03-25T11:59:54;3.73;;;2.57;;
2724;SDS011;1370;52.596;13.112;2024-03-25T12:02:19;2.90;;;2.70;;
2724;SDS011;1370;52.596;13.112;2024-03-25T12:04:44;4.03;;;2.30;;
2724;SDS011;1370;52.596;13.112;2024-03-25T12:07:16;3.47;;;1.80;;
2724;SDS011;1370;52.596;13.112;2024-03-25T12:09:42;2.20;;;1.90;;
2724;SDS011;1370;52.596;13.112;2024-03-25T12:12:26;2.73;;;2.03;;
2724;SDS011;1370;52.596;13.112;2024-03-25T12:14:51;3.63;;;2.17;;
2724;SDS011;1370;52.596;13.112;2024-03-25T12:17:20;4.57;;;2.40;;
2724;SDS011;1370;52.596;13.112;2024-03-25T12:20:07;2.30;;;1.80;;
2724;SDS011;1370;52.596;13.112;2024-03-25T12:22:36;2.10;;;1.60;;
2724;SDS011;1370;52.596;13.112;2024-03-25T12:25:02;3.30;;;1.80;;
2724;SDS011;1370;52.596;13.112;2024-03-25T12:27:29;3.00;;;1.90;;
2724;SDS011;1370;52.596;13.112;2024-03-25T12:30:02;7.00;;;2.40;;
2724;SDS011;1370;52.596;13.112;2024-03-25T12:35:11;2.40;;;1.73;;
2724;SDS011;1370;52.596;13.112;2024-03-25T12:37:40;2.47;;;1.93;;
2724;SDS011;1370;52.596;13.112;2024-03-25T12:40:06;3.60;;;2.43;;
2724;SDS011;1370;52.596;13.112;2024-03-25T12:42:33;2.63;;;1.60;;
2724;SDS011;1370;52.596;13.112;2024-03-25T12:44:59;4.70;;;2.37;;
2724;SDS011;1370;52.596;13.112;2024-03-25T12:47:24;2.00;;;1.80;;
2724;SDS011;1370;52.596;13.112;2024-03-25T12:49:50;2.57;;;1.63;;
2724;SDS011;1370;52.596;13.112;2024-03-25T12:52:15;2.90;;;2.67;;
2724;SDS011;1370;52.596;13.112;2024-03-25T12:54:40;3.53;;;1.67;;
2724;SDS011;1370;52.596;13.112;2024-03-25T12:57:06;3.03;;;1.60;;
2724;SDS011;1370;52.596;13.112;2024-03-25T12:59:32;4.87;;;2.47;;
2724;SDS011;1370;52.596;13.112;2024-03-25T13:01:57;6.20;;;4.00;;
2724;SDS011;1370;52.596;13.112;2024-03-25T13:04:22;4.83;;;3.83;;
2724;SDS011;1370;52.596;13.112;2024-03-25T13:06:48;2.80;;;2.47;;
2724;SDS011;1370;52.596;13.112;2024-03-25T13:09:13;2.00;;;1.20;;
2724;SDS011;1370;52.596;13.112;2024-03-25T13:11:38;2.67;;;1.40;;
2724;SDS011;1370;52.596;13.112;2024-03-25T13:14:04;2.53;;;2.23;;
2724;SDS011;1370;52.596;13.112;2024-03-25T13:16:31;4.80;;;1.80;;
2724;SDS011;1370;52.596;13.112;2024-03-25T13:18:57;2.87;;;1.73;;
2724;SDS011;1370;52.596;13.112;2024-03-25T13:21:22;1.90;;;1.50;;
2724;SDS011;1370;52.596;13.112;2024-03-25T13:23:50;2.40;;;2.20;;
2724;SDS011;1370;52.596;13.112;2024-03-25T13:26:15;2.57;;;1.70;;
2724;SDS011;1370;52.596;13.112;2024-03-25T13:28:40;2.70;;;1.80;;
2724;SDS011;1370;52.596;13.112;2024-03-25T13:31:05;2.40;;;2.03;;
2724;SDS011;1370;52.596;13.112;2024-03-25T13:33:31;2.67;;;2.47;;
2724;SDS011;1370;52.596;13.112;2024-03-25T13:35:56;2.93;;;1.90;;
2724;SDS011;1370;52.596;13.112;2024-03-25T13:38:21;2.20;;;1.70;;
2724;SDS011;1370;52.596;13.112;2024-03-25T13:40:47;2.20;;;1.80;;
2724;SDS011;1370;52.596;13.112;2024-03-25T13:43:12;2.57;;;1.67;;
2724;SDS011;1370;52.596;13.112;2024-03-25T13:45:40;2.57;;;1.60;;
2724;SDS011;1370;52.596;13.112;2024-03-25T13:48:11;2.17;;;1.97;;
2724;SDS011;1370;52.596;13.112;2024-03-25T13:50:36;2.57;;;1.20;;
2724;SDS011;1370;52.596;13.112;2024-03-25T13:53:02;4.20;;;3.80;;
2724;SDS011;1370;52.596;13.112;2024-03-25T13:55:27;1.97;;;1.63;;
2724;SDS011;1370;52.596;13.112;2024-03-25T13:57:53;1.80;;;1.40;;
2724;SDS011;1370;52.596;13.112;2024-03-25T14:00:18;2.13;;;1.77;;
2724;SDS011;1370;52.596;13.112;2024-03-25T14:02:43;4.30;;;1.63;;
2724;SDS011;1370;52.596;13.112;2024-03-25T14:05:08;2.83;;;1.47;;
2724;SDS011;1370;52.596;13.112;2024-03-25T14:07:34;4.53;;;2.03;;
2724;SDS011;1370;52.596;13.112;2024-03-25T14:09:59;2.07;;;1.30;;
2724;SDS011;1370;52.596;13.112;2024-03-25T14:12:24;1.93;;;1.60;;
2724;SDS011;1370;52.596;13.112;2024-03-25T14:14:50;4.00;;;2.27;;
2724;SDS011;1370;52.596;13.112;2024-03-25T14:17:15;2.07;;;1.73;;
2724;SDS011;1370;52.596;13.112;2024-03-25T14:19:41;1.97;;;1.63;;
2724;SDS011;1370;52.596;13.112;2024-03-25T14:22:06;4.50;;;1.80;;
2724;SDS011;1370;52.596;13.112;2024-03-25T14:24:32;2.20;;;1.80;;
2724;SDS011;1370;52.596;13.112;2024-03-25T14:26:57;2.60;;;1.60;;
2724;SDS011;1370;52.596;13.112;2024-03-25T14:29:23;4.87;;;2.17;;
2724;SDS011;1370;52.596;13.112;2024-03-25T14:31:48;10.23;;;2.60;;
2724;SDS011;1370;52.596;13.112;2024-03-25T14:34:13;2.53;;;1.80;;
2724;SDS011;1370;52.596;13.112;2024-03-25T14:36:38;1.80;;;1.50;;
2724;SDS011;1370;52.596;13.112;2024-03-25T14:39:04;2.30;;;1.77;;
2724;SDS011;1370;52.596;13.112;2024-03-25T14:41:29;3.80;;;1.83;;
2724;SDS011;1370;52.596;13.112;2024-03-25T14:44:03;2.97;;;1.63;;
2724;SDS011;1370;52.596;13.112;2024-03-25T14:46:29;4.50;;;1.67;;
2724;SDS011;1370;52.596;13.112;2024-03-25T14:48:54;2.20;;;1.90;;
2724;SDS011;1370;52.596;13.112;2024-03-25T14:51:19;3.50;;;1.73;;
2724;SDS011;1370;52.596;13.112;2024-03-25T14:53:45;2.03;;;1.10;;
2724;SDS011;1370;52.596;13.112;2024-03-25T14:56:10;3.60;;;1.33;;
2724;SDS011;1370;52.596;13.112;2024-03-25T14:58:35;1.87;;;1.70;;
2724;SDS011;1370;52.596;13.112;2024-03-25T15:01:01;1.83;;;1.57;;
2724;SDS011;1370;52.596;13.112;2024-03-25T15:03:26;4.30;;;1.33;;